createdAt,value
2019-01-24T00:01:34.837Z,-0.20
2019-01-24T00:06:37.858Z,-0.20
2019-01-24T00:11:59.105Z,-0.20
2019-01-24T00:17:11.255Z,-0.20
2019-01-24T00:22:18.934Z,-0.20
2019-01-24T00:27:22.590Z,-0.10
2019-01-24T00:32:28.863Z,0.00
2019-01-24T00:37:31.872Z,0.00
2019-01-24T00:42:35.079Z,0.00
2019-01-24T00:47:38.590Z,0.10
2019-01-24T00:53:00.207Z,0.10
2019-01-24T00:58:04.222Z,0.20
2019-01-24T01:03:25.331Z,0.30
2019-01-24T01:08:33.300Z,0.20
2019-01-24T01:13:36.699Z,0.30
2019-01-24T01:18:40.783Z,0.20
2019-01-24T01:23:43.788Z,0.20
2019-01-24T01:28:55.785Z,0.20
2019-01-24T01:34:03.259Z,0.20
2019-01-24T01:39:16.166Z,0.20
2019-01-24T01:44:29.641Z,0.20
2019-01-24T01:49:32.614Z,0.20
2019-01-24T01:54:35.759Z,0.20
2019-01-24T01:59:43.521Z,0.10
2019-01-24T02:04:56.279Z,0.00
2019-01-24T02:10:20.339Z,0.00
2019-01-24T02:15:29.074Z,0.00
2019-01-24T02:20:32.831Z,0.00
2019-01-24T02:25:37.140Z,0.00
2019-01-24T02:30:44.106Z,0.00
2019-01-24T02:35:48.748Z,0.00
2019-01-24T02:40:56.435Z,-0.10
2019-01-24T02:46:01.185Z,-0.10
2019-01-24T02:51:07.243Z,-0.10
2019-01-24T02:56:19.255Z,0.00
2019-01-24T03:01:22.120Z,0.00
2019-01-24T03:06:27.116Z,0.20
2019-01-24T03:11:30.015Z,0.40
2019-01-24T03:16:33.775Z,0.50
2019-01-24T03:21:36.624Z,0.60
2019-01-24T03:26:50.099Z,0.60
2019-01-24T03:31:54.076Z,0.50
2019-01-24T03:37:02.659Z,0.40
2019-01-24T03:42:23.832Z,0.50
2019-01-24T03:47:26.996Z,0.60
2019-01-24T03:52:31.496Z,0.60
2019-01-24T03:57:34.532Z,0.70
2019-01-24T04:02:56.715Z,0.70
2019-01-24T04:08:04.492Z,0.70
2019-01-24T04:13:10.676Z,0.60
2019-01-24T04:18:13.783Z,0.60
2019-01-24T04:23:19.494Z,0.50
2019-01-24T04:28:25.913Z,0.60
2019-01-24T04:33:29.871Z,0.70
2019-01-24T04:38:33.906Z,0.80
2019-01-24T04:43:37.123Z,0.90
2019-01-24T04:48:40.086Z,1.00
2019-01-24T04:53:47.148Z,1.00
2019-01-24T04:58:53.059Z,1.00
2019-01-24T05:04:15.251Z,1.00
2019-01-24T05:09:36.247Z,1.00
2019-01-24T05:14:45.029Z,1.00
2019-01-24T05:19:47.836Z,1.00
2019-01-24T05:25:11.080Z,1.00
2019-01-24T05:30:27.362Z,1.00
2019-01-24T05:35:34.941Z,1.00
2019-01-24T05:40:40.671Z,1.00
2019-01-24T05:45:44.500Z,1.00
2019-01-24T05:50:51.170Z,1.00
2019-01-24T05:55:54.640Z,1.00
2019-01-24T06:01:02.355Z,0.90
2019-01-24T06:06:07.057Z,0.90
2019-01-24T06:11:13.895Z,0.90
2019-01-24T06:16:20.023Z,0.90
2019-01-24T06:21:24.007Z,0.90
2019-01-24T06:26:30.363Z,0.90
2019-01-24T06:31:33.227Z,0.90
2019-01-24T06:36:37.415Z,0.90
2019-01-24T06:41:52.523Z,0.90
2019-01-24T06:47:13.840Z,0.80
2019-01-24T06:52:25.681Z,0.80
2019-01-24T06:57:46.519Z,0.80
2019-01-24T07:02:58.640Z,0.90
2019-01-24T07:08:06.685Z,1.00
2019-01-24T07:13:14.565Z,1.10
2019-01-24T07:18:26.747Z,1.20
2019-01-24T07:23:47.711Z,1.10
2019-01-24T07:28:50.867Z,1.20
2019-01-24T07:33:57.666Z,1.20
2019-01-24T07:39:07.033Z,1.20
2019-01-24T07:44:14.030Z,1.30
2019-01-24T07:49:21.769Z,1.30
2019-01-24T07:54:33.572Z,1.30
2019-01-24T07:59:37.566Z,1.30
2019-01-24T08:04:41.616Z,1.40
2019-01-24T08:09:49.451Z,1.50
2019-01-24T08:14:57.504Z,1.60
2019-01-24T08:20:08.667Z,1.70
2019-01-24T08:25:12.867Z,1.80
2019-01-24T08:30:20.451Z,1.80
2019-01-24T08:35:40.182Z,1.80
2019-01-24T09:30:27.328Z,2.00
2019-01-24T09:35:48.447Z,2.10
2019-01-24T09:41:33.671Z,2.30
2019-01-24T09:59:50.567Z,1.80
2019-01-24T10:17:57.764Z,2.10
2019-01-24T10:23:00.654Z,2.50
2019-01-24T10:28:03.585Z,2.90
2019-01-24T10:33:10.193Z,3.20
2019-01-24T10:38:31.635Z,3.50
2019-01-24T10:43:52.492Z,3.20
2019-01-24T10:48:59.443Z,3.20
2019-01-24T10:54:13.335Z,3.30
2019-01-24T10:59:16.441Z,3.40
2019-01-24T11:04:51.828Z,3.50
2019-01-24T11:10:15.363Z,3.80
2019-01-24T11:15:36.160Z,4.00
2019-01-24T11:20:42.965Z,4.10
2019-01-24T11:25:47.134Z,4.20
2019-01-24T11:30:50.796Z,4.30
2019-01-24T11:35:53.859Z,4.30
2019-01-24T11:40:58.789Z,4.40
2019-01-24T11:46:19.950Z,4.40
2019-01-24T11:51:40.963Z,4.50
2019-01-24T11:56:43.699Z,4.40
2019-01-24T12:01:48.382Z,4.60
2019-01-24T12:06:56.595Z,4.70
2019-01-24T12:12:17.525Z,4.90
2019-01-24T12:17:20.931Z,5.10
2019-01-24T12:22:41.895Z,5.00
2019-01-24T12:27:45.247Z,4.90
2019-01-24T12:32:48.572Z,4.80
2019-01-24T12:37:55.600Z,4.60
2019-01-24T12:43:16.635Z,4.50
2019-01-24T12:48:22.776Z,4.60
2019-01-24T12:53:27.465Z,4.70
2019-01-24T12:58:33.627Z,4.90
2019-01-24T13:03:38.510Z,4.70
2019-01-24T13:08:46.572Z,4.90
2019-01-24T13:14:07.933Z,5.10
2019-01-24T13:19:21.856Z,5.10
2019-01-24T13:24:28.107Z,5.10
2019-01-24T13:29:49.394Z,4.80
2019-01-24T13:34:52.111Z,4.60
2019-01-24T13:40:05.277Z,4.60
2019-01-24T13:45:11.941Z,4.60
2019-01-24T13:50:32.631Z,4.40
2019-01-24T13:55:36.387Z,4.40
2019-01-24T14:00:44.087Z,4.20
2019-01-24T14:06:04.811Z,3.90
2019-01-24T14:11:10.741Z,3.60
2019-01-24T14:16:15.323Z,3.60
2019-01-24T14:21:36.524Z,3.50
2019-01-24T14:26:57.891Z,3.60
2019-01-24T14:32:01.075Z,3.60
2019-01-24T14:37:10.127Z,3.60
2019-01-24T14:42:17.107Z,3.50
2019-01-24T14:47:30.912Z,3.40
2019-01-24T14:52:34.920Z,3.40
2019-01-24T14:57:48.255Z,3.20
2019-01-24T15:03:09.397Z,3.00
2019-01-24T15:08:21.774Z,2.90
2019-01-24T15:13:28.385Z,2.80
2019-01-24T15:18:32.267Z,2.80
2019-01-24T15:23:36.463Z,2.70
2019-01-24T15:28:43.327Z,2.60
2019-01-24T15:33:47.019Z,2.50
2019-01-24T15:39:09.160Z,2.40
2019-01-24T15:44:30.255Z,2.30
2019-01-24T15:49:38.363Z,2.30
2019-01-24T15:54:50.220Z,2.20
2019-01-24T16:00:04.592Z,2.10
2019-01-24T16:05:26.946Z,2.00
2019-01-24T16:10:48.259Z,1.90
2019-01-24T16:16:09.570Z,1.90
2019-01-24T16:21:16.992Z,1.80
2019-01-24T16:26:29.662Z,1.80
2019-01-24T16:31:36.372Z,1.70
2019-01-24T16:36:49.184Z,1.70
2019-01-24T16:42:02.222Z,1.70
2019-01-24T16:47:05.879Z,1.70
2019-01-24T16:52:12.727Z,1.70
2019-01-24T16:57:16.407Z,1.70
2019-01-24T17:02:23.416Z,1.70
2019-01-24T17:07:28.413Z,1.70
2019-01-24T17:12:41.110Z,1.70
2019-01-24T17:17:55.879Z,1.70
2019-01-24T17:23:00.051Z,1.60
2019-01-24T17:28:21.411Z,1.50
2019-01-24T17:33:27.517Z,1.50
2019-01-24T17:38:48.449Z,1.40
2019-01-24T17:43:51.684Z,1.40
2019-01-24T17:49:03.763Z,1.40
2019-01-24T17:54:06.835Z,1.40
2019-01-24T17:59:29.486Z,1.30
2019-01-24T18:04:34.446Z,1.40
2019-01-24T18:09:40.431Z,1.40
2019-01-24T18:21:16.183Z,1.10
2019-01-24T18:32:53.711Z,1.10
2019-01-24T18:38:15.186Z,1.10
2019-01-24T18:43:37.278Z,1.10
2019-01-24T18:48:41.267Z,1.10
2019-01-24T18:53:44.307Z,1.20
2019-01-24T19:04:53.484Z,0.90
2019-01-24T19:09:56.780Z,0.90
2019-01-24T19:15:19.423Z,1.00
2019-01-24T19:20:40.594Z,1.00
2019-01-24T19:25:45.151Z,1.20
2019-01-24T19:30:53.069Z,1.20
2019-01-24T19:36:00.387Z,1.10
2019-01-24T19:41:22.702Z,1.20
2019-01-24T19:46:26.323Z,1.20
2019-01-24T19:51:29.948Z,1.10
2019-01-24T19:56:51.294Z,1.10
2019-01-24T20:02:14.664Z,1.10
2019-01-24T20:07:17.832Z,1.20
2019-01-24T20:12:26.322Z,1.30
2019-01-24T20:17:47.547Z,1.30
2019-01-24T20:22:51.186Z,1.30
2019-01-24T20:28:13.309Z,1.30
2019-01-24T20:33:18.271Z,1.30
2019-01-24T20:38:21.855Z,1.30
2019-01-24T20:43:36.902Z,1.30
2019-01-24T20:48:43.112Z,1.20
2019-01-24T20:53:47.568Z,1.20
2019-01-24T20:58:59.613Z,1.30
2019-01-24T21:04:11.831Z,1.30
2019-01-24T21:09:15.118Z,1.40
2019-01-24T21:14:22.126Z,1.20
2019-01-24T21:19:26.279Z,1.20
2019-01-24T21:24:34.020Z,1.10
2019-01-24T21:29:37.113Z,1.00
2019-01-24T21:34:40.075Z,0.90
2019-01-24T21:39:54.455Z,0.70
2019-01-24T21:44:57.708Z,0.60
2019-01-24T21:50:05.388Z,0.50
2019-01-24T21:55:08.619Z,0.40
2019-01-24T22:00:16.496Z,0.20
2019-01-24T22:05:20.749Z,0.10
2019-01-24T22:10:28.921Z,0.00
2019-01-24T22:15:33.624Z,-0.20
2019-01-24T22:20:47.731Z,-0.20
2019-01-24T22:25:52.685Z,-0.30
2019-01-24T22:31:06.189Z,-0.40
2019-01-24T22:36:27.371Z,-0.60
2019-01-24T22:41:39.984Z,-0.80
2019-01-24T22:46:46.572Z,-0.90
2019-01-24T22:51:54.242Z,-1.00
2019-01-24T22:57:07.068Z,-1.10
2019-01-24T23:02:18.306Z,-1.20
2019-01-24T23:07:23.086Z,-1.30
2019-01-24T23:12:26.112Z,-1.50
2019-01-24T23:17:47.558Z,-1.60
2019-01-24T23:22:53.232Z,-1.70
2019-01-24T23:27:56.371Z,-1.80
2019-01-24T23:33:00.095Z,-1.80
2019-01-24T23:38:06.719Z,-1.90
2019-01-24T23:43:19.005Z,-1.90
2019-01-24T23:48:41.484Z,-2.00
2019-01-24T23:53:44.185Z,-2.00
2019-01-24T23:58:55.984Z,-2.00
